sensor_id;sensor_type;location;lat;lon;timestamp;P1;durP1;ratioP1;P2;durP2;ratioP2
56239;SDS011;42154;51.992;5.896;2024-03-23T00:53:07;22.77;;;8.45;;
56239;SDS011;42154;51.992;5.896;2024-03-23T00:55:33;15.57;;;7.53;;
56239;SDS011;42154;51.992;5.896;2024-03-23T00:57:59;22.30;;;9.05;;
56239;SDS011;42154;51.992;5.896;2024-03-23T01:00:24;20.35;;;8.80;;
56239;SDS011;42154;51.992;5.896;2024-03-23T01:02:50;21.35;;;8.38;;
56239;SDS011;42154;51.992;5.896;2024-03-23T01:05:16;20.55;;;8.43;;
56239;SDS011;42154;51.992;5.896;2024-03-23T01:07:42;25.30;;;10.30;;
56239;SDS011;42154;51.992;5.896;2024-03-23T01:10:07;22.95;;;9.13;;
56239;SDS011;42154;51.992;5.896;2024-03-23T01:12:33;24.63;;;10.02;;
56239;SDS011;42154;51.992;5.896;2024-03-23T01:14:59;21.65;;;9.70;;
56239;SDS011;42154;51.992;5.896;2024-03-23T01:17:25;20.20;;;9.48;;
56239;SDS011;42154;51.992;5.896;2024-03-23T01:19:50;22.42;;;10.80;;
56239;SDS011;42154;51.992;5.896;2024-03-23T01:22:16;19.90;;;9.52;;
56239;SDS011;42154;51.992;5.896;2024-03-23T01:24:42;20.52;;;10.35;;
56239;SDS011;42154;51.992;5.896;2024-03-23T01:27:08;22.02;;;9.18;;
56239;SDS011;42154;51.992;5.896;2024-03-23T01:29:34;21.67;;;9.10;;
56239;SDS011;42154;51.992;5.896;2024-03-23T01:32:00;22.42;;;10.55;;
56239;SDS011;42154;51.992;5.896;2024-03-23T01:34:25;26.23;;;11.10;;
56239;SDS011;42154;51.992;5.896;2024-03-23T01:36:51;23.73;;;9.82;;
56239;SDS011;42154;51.992;5.896;2024-03-23T01:39:17;19.63;;;9.52;;
56239;SDS011;42154;51.992;5.896;2024-03-23T01:41:43;23.20;;;10.75;;
56239;SDS011;42154;51.992;5.896;2024-03-23T01:44:09;18.70;;;8.93;;
56239;SDS011;42154;51.992;5.896;2024-03-23T01:46:37;21.88;;;9.57;;
56239;SDS011;42154;51.992;5.896;2024-03-23T01:49:07;26.77;;;10.43;;
56239;SDS011;42154;51.992;5.896;2024-03-23T01:51:33;23.42;;;10.45;;
56239;SDS011;42154;51.992;5.896;2024-03-23T01:54:00;32.55;;;12.23;;
56239;SDS011;42154;51.992;5.896;2024-03-23T01:56:33;23.40;;;10.45;;
56239;SDS011;42154;51.992;5.896;2024-03-23T01:59:05;18.83;;;9.40;;
56239;SDS011;42154;51.992;5.896;2024-03-23T02:01:31;21.65;;;10.93;;
56239;SDS011;42154;51.992;5.896;2024-03-23T02:03:58;18.08;;;9.75;;
56239;SDS011;42154;51.992;5.896;2024-03-23T02:06:24;24.42;;;10.27;;
56239;SDS011;42154;51.992;5.896;2024-03-23T02:08:50;21.17;;;10.75;;
56239;SDS011;42154;51.992;5.896;2024-03-23T02:11:16;19.52;;;9.57;;
56239;SDS011;42154;51.992;5.896;2024-03-23T02:13:42;22.38;;;10.38;;
56239;SDS011;42154;51.992;5.896;2024-03-23T02:16:08;20.80;;;9.40;;
56239;SDS011;42154;51.992;5.896;2024-03-23T02:18:34;25.98;;;10.18;;
56239;SDS011;42154;51.992;5.896;2024-03-23T02:20:59;25.58;;;11.02;;
56239;SDS011;42154;51.992;5.896;2024-03-23T02:23:25;23.42;;;10.40;;
56239;SDS011;42154;51.992;5.896;2024-03-23T02:25:51;22.13;;;10.63;;
56239;SDS011;42154;51.992;5.896;2024-03-23T02:28:18;19.60;;;10.00;;
56239;SDS011;42154;51.992;5.896;2024-03-23T02:30:44;25.15;;;11.15;;
56239;SDS011;42154;51.992;5.896;2024-03-23T02:33:10;22.33;;;11.40;;
56239;SDS011;42154;51.992;5.896;2024-03-23T02:35:36;24.33;;;11.23;;
56239;SDS011;42154;51.992;5.896;2024-03-23T02:38:02;19.10;;;10.65;;
56239;SDS011;42154;51.992;5.896;2024-03-23T02:40:28;24.85;;;11.35;;
56239;SDS011;42154;51.992;5.896;2024-03-23T02:42:54;21.63;;;11.95;;
56239;SDS011;42154;51.992;5.896;2024-03-23T02:45:19;22.65;;;11.10;;
56239;SDS011;42154;51.992;5.896;2024-03-23T02:47:45;24.58;;;11.23;;
56239;SDS011;42154;51.992;5.896;2024-03-23T02:50:11;20.95;;;10.70;;
56239;SDS011;42154;51.992;5.896;2024-03-23T02:52:37;21.85;;;10.25;;
56239;SDS011;42154;51.992;5.896;2024-03-23T02:55:03;17.98;;;9.43;;
56239;SDS011;42154;51.992;5.896;2024-03-23T02:57:29;18.17;;;8.57;;
56239;SDS011;42154;51.992;5.896;2024-03-23T02:59:55;18.55;;;9.57;;
56239;SDS011;42154;51.992;5.896;2024-03-23T03:02:21;25.80;;;11.07;;
56239;SDS011;42154;51.992;5.896;2024-03-23T03:04:47;23.50;;;11.60;;
56239;SDS011;42154;51.992;5.896;2024-03-23T03:07:13;24.70;;;11.50;;
56239;SDS011;42154;51.992;5.896;2024-03-23T03:09:39;21.92;;;11.38;;
56239;SDS011;42154;51.992;5.896;2024-03-23T03:12:05;21.98;;;11.48;;
56239;SDS011;42154;51.992;5.896;2024-03-23T03:14:31;16.80;;;10.55;;
56239;SDS011;42154;51.992;5.896;2024-03-23T03:16:57;21.52;;;12.25;;
56239;SDS011;42154;51.992;5.896;2024-03-23T03:19:23;24.70;;;12.50;;
56239;SDS011;42154;51.992;5.896;2024-03-23T03:21:48;22.83;;;12.38;;
56239;SDS011;42154;51.992;5.896;2024-03-23T03:24:14;27.17;;;13.38;;
56239;SDS011;42154;51.992;5.896;2024-03-23T03:26:40;24.48;;;11.82;;
56239;SDS011;42154;51.992;5.896;2024-03-23T03:29:06;26.13;;;12.85;;
56239;SDS011;42154;51.992;5.896;2024-03-23T03:31:31;31.27;;;14.63;;
56239;SDS011;42154;51.992;5.896;2024-03-23T03:33:57;26.45;;;13.02;;
56239;SDS011;42154;51.992;5.896;2024-03-23T03:36:23;26.20;;;12.68;;
56239;SDS011;42154;51.992;5.896;2024-03-23T03:38:48;27.42;;;13.18;;
56239;SDS011;42154;51.992;5.896;2024-03-23T03:41:14;23.65;;;11.32;;
56239;SDS011;42154;51.992;5.896;2024-03-23T03:43:40;31.55;;;14.93;;
56239;SDS011;42154;51.992;5.896;2024-03-23T03:46:06;27.33;;;12.77;;
56239;SDS011;42154;51.992;5.896;2024-03-23T03:48:33;27.65;;;13.15;;
56239;SDS011;42154;51.992;5.896;2024-03-23T03:50:59;26.02;;;12.40;;
56239;SDS011;42154;51.992;5.896;2024-03-23T03:53:25;23.02;;;11.68;;
56239;SDS011;42154;51.992;5.896;2024-03-23T03:55:51;24.65;;;10.85;;
56239;SDS011;42154;51.992;5.896;2024-03-23T03:58:17;18.02;;;9.85;;
56239;SDS011;42154;51.992;5.896;2024-03-23T04:00:42;21.08;;;11.23;;
56239;SDS011;42154;51.992;5.896;2024-03-23T04:03:08;24.98;;;11.90;;
56239;SDS011;42154;51.992;5.896;2024-03-23T04:05:34;23.63;;;10.60;;
56239;SDS011;42154;51.992;5.896;2024-03-23T04:08:00;21.70;;;11.27;;
56239;SDS011;42154;51.992;5.896;2024-03-23T04:10:25;19.20;;;10.52;;
56239;SDS011;42154;51.992;5.896;2024-03-23T04:12:52;20.02;;;10.95;;
56239;SDS011;42154;51.992;5.896;2024-03-23T04:15:19;22.13;;;11.52;;
56239;SDS011;42154;51.992;5.896;2024-03-23T04:17:45;20.65;;;10.38;;
56239;SDS011;42154;51.992;5.896;2024-03-23T04:20:11;21.98;;;10.30;;
56239;SDS011;42154;51.992;5.896;2024-03-23T04:22:39;19.65;;;10.18;;
56239;SDS011;42154;51.992;5.896;2024-03-23T04:25:05;19.15;;;9.77;;
56239;SDS011;42154;51.992;5.896;2024-03-23T04:27:36;12.82;;;6.95;;
56239;SDS011;42154;51.992;5.896;2024-03-23T04:30:04;20.70;;;9.32;;
56239;SDS011;42154;51.992;5.896;2024-03-23T04:32:39;22.48;;;9.27;;
56239;SDS011;42154;51.992;5.896;2024-03-23T04:35:05;21.17;;;9.52;;
56239;SDS011;42154;51.992;5.896;2024-03-23T04:37:32;17.60;;;8.43;;
56239;SDS011;42154;51.992;5.896;2024-03-23T04:39:59;19.85;;;8.35;;
56239;SDS011;42154;51.992;5.896;2024-03-23T04:42:26;16.00;;;8.25;;
56239;SDS011;42154;51.992;5.896;2024-03-23T04:44:53;15.95;;;8.32;;
56239;SDS011;42154;51.992;5.896;2024-03-23T04:47:18;18.20;;;7.93;;
56239;SDS011;42154;51.992;5.896;2024-03-23T04:49:44;17.02;;;7.43;;
56239;SDS011;42154;51.992;5.896;2024-03-23T04:52:10;15.05;;;6.38;;
56239;SDS011;42154;51.992;5.896;2024-03-23T04:54:36;15.77;;;6.95;;
56239;SDS011;42154;51.992;5.896;2024-03-23T04:57:01;15.82;;;6.60;;
56239;SDS011;42154;51.992;5.896;2024-03-23T04:59:27;15.15;;;6.38;;
56239;SDS011;42154;51.992;5.896;2024-03-23T05:01:53;15.85;;;6.43;;
56239;SDS011;42154;51.992;5.896;2024-03-23T05:04:18;9.60;;;5.15;;
56239;SDS011;42154;51.992;5.896;2024-03-23T05:06:44;13.85;;;5.70;;
56239;SDS011;42154;51.992;5.896;2024-03-23T05:09:10;13.43;;;5.65;;
56239;SDS011;42154;51.992;5.896;2024-03-23T05:11:37;14.23;;;5.65;;
56239;SDS011;42154;51.992;5.896;2024-03-23T05:14:03;12.98;;;5.15;;
56239;SDS011;42154;51.992;5.896;2024-03-23T05:16:29;10.77;;;4.78;;
56239;SDS011;42154;51.992;5.896;2024-03-23T05:18:55;11.73;;;4.82;;
56239;SDS011;42154;51.992;5.896;2024-03-23T05:21:20;9.55;;;4.35;;
56239;SDS011;42154;51.992;5.896;2024-03-23T05:23:46;13.45;;;4.95;;
56239;SDS011;42154;51.992;5.896;2024-03-23T05:26:13;12.30;;;5.10;;
56239;SDS011;42154;51.992;5.896;2024-03-23T05:28:39;10.82;;;4.80;;
56239;SDS011;42154;51.992;5.896;2024-03-23T05:31:05;13.15;;;5.72;;
56239;SDS011;42154;51.992;5.896;2024-03-23T05:33:31;11.88;;;5.40;;
56239;SDS011;42154;51.992;5.896;2024-03-23T05:35:57;15.20;;;5.45;;
56239;SDS011;42154;51.992;5.896;2024-03-23T05:38:23;13.10;;;5.53;;
56239;SDS011;42154;51.992;5.896;2024-03-23T05:40:53;13.50;;;4.72;;
56239;SDS011;42154;51.992;5.896;2024-03-23T05:43:23;11.40;;;5.03;;
56239;SDS011;42154;51.992;5.896;2024-03-23T05:45:55;11.40;;;4.80;;
56239;SDS011;42154;51.992;5.896;2024-03-23T05:48:25;11.98;;;4.25;;
56239;SDS011;42154;51.992;5.896;2024-03-23T05:50:52;9.30;;;4.70;;
56239;SDS011;42154;51.992;5.896;2024-03-23T05:53:18;10.57;;;4.38;;
56239;SDS011;42154;51.992;5.896;2024-03-23T05:55:47;10.52;;;4.22;;
56239;SDS011;42154;51.992;5.896;2024-03-23T05:58:14;11.77;;;4.10;;
56239;SDS011;42154;51.992;5.896;2024-03-23T06:00:41;11.13;;;3.80;;
56239;SDS011;42154;51.992;5.896;2024-03-23T06:03:07;8.48;;;3.72;;
56239;SDS011;42154;51.992;5.896;2024-03-23T06:05:34;9.73;;;3.78;;
56239;SDS011;42154;51.992;5.896;2024-03-23T06:07:59;12.60;;;3.90;;
56239;SDS011;42154;51.992;5.896;2024-03-23T06:10:25;13.05;;;4.95;;
56239;SDS011;42154;51.992;5.896;2024-03-23T06:12:51;9.27;;;3.65;;
56239;SDS011;42154;51.992;5.896;2024-03-23T06:15:20;14.98;;;4.68;;
56239;SDS011;42154;51.992;5.896;2024-03-23T06:17:47;10.95;;;4.60;;
56239;SDS011;42154;51.992;5.896;2024-03-23T06:20:13;10.57;;;3.72;;
56239;SDS011;42154;51.992;5.896;2024-03-23T06:22:39;12.43;;;3.70;;
56239;SDS011;42154;51.992;5.896;2024-03-23T06:25:05;10.05;;;3.22;;
56239;SDS011;42154;51.992;5.896;2024-03-23T06:27:32;8.90;;;3.67;;
56239;SDS011;42154;51.992;5.896;2024-03-23T06:29:58;9.30;;;3.28;;
56239;SDS011;42154;51.992;5.896;2024-03-23T06:32:24;10.35;;;3.55;;
56239;SDS011;42154;51.992;5.896;2024-03-23T06:34:50;11.18;;;3.22;;
56239;SDS011;42154;51.992;5.896;2024-03-23T06:37:15;13.10;;;3.05;;
56239;SDS011;42154;51.992;5.896;2024-03-23T06:39:41;10.80;;;3.58;;
56239;SDS011;42154;51.992;5.896;2024-03-23T06:42:07;9.75;;;2.85;;
56239;SDS011;42154;51.992;5.896;2024-03-23T06:44:33;9.32;;;3.10;;
56239;SDS011;42154;51.992;5.896;2024-03-23T06:46:59;7.93;;;2.40;;
56239;SDS011;42154;51.992;5.896;2024-03-23T06:49:25;7.80;;;2.70;;
56239;SDS011;42154;51.992;5.896;2024-03-23T06:51:50;14.65;;;3.65;;
56239;SDS011;42154;51.992;5.896;2024-03-23T06:54:17;11.63;;;3.10;;
56239;SDS011;42154;51.992;5.896;2024-03-23T06:56:46;10.35;;;2.80;;
56239;SDS011;42154;51.992;5.896;2024-03-23T06:59:12;10.65;;;3.13;;
56239;SDS011;42154;51.992;5.896;2024-03-23T07:01:38;12.00;;;2.83;;
56239;SDS011;42154;51.992;5.896;2024-03-23T07:04:03;7.93;;;2.30;;
56239;SDS011;42154;51.992;5.896;2024-03-23T07:06:30;8.93;;;2.38;;
56239;SDS011;42154;51.992;5.896;2024-03-23T07:08:56;10.70;;;2.67;;
56239;SDS011;42154;51.992;5.896;2024-03-23T07:11:22;9.82;;;2.60;;
56239;SDS011;42154;51.992;5.896;2024-03-23T07:13:51;10.60;;;2.60;;
56239;SDS011;42154;51.992;5.896;2024-03-23T07:16:19;9.80;;;2.53;;
56239;SDS011;42154;51.992;5.896;2024-03-23T07:18:45;9.13;;;2.70;;
56239;SDS011;42154;51.992;5.896;2024-03-23T07:21:11;12.05;;;2.70;;
56239;SDS011;42154;51.992;5.896;2024-03-23T07:23:37;9.02;;;2.63;;
56239;SDS011;42154;51.992;5.896;2024-03-23T07:26:04;7.70;;;2.47;;
56239;SDS011;42154;51.992;5.896;2024-03-23T07:28:30;12.05;;;3.65;;
56239;SDS011;42154;51.992;5.896;2024-03-23T07:31:14;12.50;;;3.13;;
56239;SDS011;42154;51.992;5.896;2024-03-23T07:33:42;7.80;;;2.47;;
56239;SDS011;42154;51.992;5.896;2024-03-23T07:36:09;8.02;;;2.90;;
56239;SDS011;42154;51.992;5.896;2024-03-23T07:38:35;7.30;;;3.40;;
56239;SDS011;42154;51.992;5.896;2024-03-23T07:43:30;12.10;;;3.40;;
56239;SDS011;42154;51.992;5.896;2024-03-23T07:45:56;10.48;;;3.10;;
56239;SDS011;42154;51.992;5.896;2024-03-23T07:48:22;9.13;;;3.13;;
56239;SDS011;42154;51.992;5.896;2024-03-23T07:53:31;8.98;;;3.33;;
56239;SDS011;42154;51.992;5.896;2024-03-23T07:55:58;7.68;;;2.92;;
56239;SDS011;42154;51.992;5.896;2024-03-23T07:58:26;9.52;;;3.13;;
56239;SDS011;42154;51.992;5.896;2024-03-23T08:00:55;11.13;;;3.30;;
56239;SDS011;42154;51.992;5.896;2024-03-23T08:03:21;10.43;;;3.58;;
56239;SDS011;42154;51.992;5.896;2024-03-23T08:05:47;8.90;;;3.20;;
56239;SDS011;42154;51.992;5.896;2024-03-23T08:08:13;9.13;;;3.38;;
56239;SDS011;42154;51.992;5.896;2024-03-23T08:10:49;8.80;;;3.42;;
56239;SDS011;42154;51.992;5.896;2024-03-23T08:13:18;13.73;;;3.92;;
56239;SDS011;42154;51.992;5.896;2024-03-23T08:15:44;16.30;;;3.65;;
56239;SDS011;42154;51.992;5.896;2024-03-23T08:18:12;13.05;;;3.40;;
56239;SDS011;42154;51.992;5.896;2024-03-23T08:20:38;10.45;;;3.33;;
56239;SDS011;42154;51.992;5.896;2024-03-23T08:23:07;9.95;;;3.60;;
56239;SDS011;42154;51.992;5.896;2024-03-23T08:25:33;14.60;;;3.33;;
56239;SDS011;42154;51.992;5.896;2024-03-23T08:27:59;10.30;;;3.10;;
56239;SDS011;42154;51.992;5.896;2024-03-23T08:30:25;12.05;;;4.45;;
56239;SDS011;42154;51.992;5.896;2024-03-23T08:32:51;10.52;;;2.97;;
56239;SDS011;42154;51.992;5.896;2024-03-23T08:35:17;7.72;;;2.70;;
56239;SDS011;42154;51.992;5.896;2024-03-23T08:37:43;7.53;;;2.85;;
56239;SDS011;42154;51.992;5.896;2024-03-23T08:40:09;10.80;;;2.53;;
56239;SDS011;42154;51.992;5.896;2024-03-23T08:42:35;11.52;;;2.50;;
56239;SDS011;42154;51.992;5.896;2024-03-23T08:45:01;8.27;;;2.78;;
56239;SDS011;42154;51.992;5.896;2024-03-23T08:47:26;8.80;;;2.38;;
56239;SDS011;42154;51.992;5.896;2024-03-23T08:49:52;10.50;;;2.35;;
56239;SDS011;42154;51.992;5.896;2024-03-23T08:52:18;10.57;;;2.75;;
56239;SDS011;42154;51.992;5.896;2024-03-23T08:54:44;8.57;;;2.40;;
56239;SDS011;42154;51.992;5.896;2024-03-23T08:57:09;8.65;;;2.40;;
56239;SDS011;42154;51.992;5.896;2024-03-23T08:59:37;5.25;;;1.58;;
56239;SDS011;42154;51.992;5.896;2024-03-23T09:02:03;6.63;;;2.10;;
56239;SDS011;42154;51.992;5.896;2024-03-23T09:04:29;5.70;;;1.50;;
56239;SDS011;42154;51.992;5.896;2024-03-23T09:06:55;6.85;;;1.73;;
56239;SDS011;42154;51.992;5.896;2024-03-23T09:09:22;10.23;;;2.28;;
56239;SDS011;42154;51.992;5.896;2024-03-23T09:11:48;4.93;;;1.60;;
56239;SDS011;42154;51.992;5.896;2024-03-23T09:14:14;8.95;;;1.75;;
56239;SDS011;42154;51.992;5.896;2024-03-23T09:16:39;7.47;;;1.88;;
56239;SDS011;42154;51.992;5.896;2024-03-23T09:19:05;9.02;;;2.67;;
56239;SDS011;42154;51.992;5.896;2024-03-23T09:21:31;5.75;;;1.67;;
56239;SDS011;42154;51.992;5.896;2024-03-23T09:23:56;8.68;;;2.33;;
56239;SDS011;42154;51.992;5.896;2024-03-23T09:26:22;8.32;;;2.05;;
56239;SDS011;42154;51.992;5.896;2024-03-23T09:28:48;8.63;;;1.92;;
56239;SDS011;42154;51.992;5.896;2024-03-23T09:31:14;7.43;;;1.95;;
56239;SDS011;42154;51.992;5.896;2024-03-23T09:33:40;5.28;;;1.70;;
56239;SDS011;42154;51.992;5.896;2024-03-23T09:36:06;8.48;;;1.92;;
56239;SDS011;42154;51.992;5.896;2024-03-23T09:38:33;5.97;;;1.50;;
56239;SDS011;42154;51.992;5.896;2024-03-23T09:40:59;9.13;;;1.92;;
56239;SDS011;42154;51.992;5.896;2024-03-23T09:43:25;7.22;;;2.00;;
56239;SDS011;42154;51.992;5.896;2024-03-23T09:45:51;8.32;;;1.60;;
56239;SDS011;42154;51.992;5.896;2024-03-23T09:48:18;9.10;;;1.80;;
56239;SDS011;42154;51.992;5.896;2024-03-23T09:50:44;7.65;;;2.10;;
56239;SDS011;42154;51.992;5.896;2024-03-23T09:53:11;7.25;;;1.63;;
56239;SDS011;42154;51.992;5.896;2024-03-23T09:55:39;6.25;;;1.52;;
56239;SDS011;42154;51.992;5.896;2024-03-23T09:58:06;13.90;;;2.38;;
56239;SDS011;42154;51.992;5.896;2024-03-23T10:00:33;7.70;;;1.70;;
56239;SDS011;42154;51.992;5.896;2024-03-23T10:03:00;5.45;;;1.60;;
56239;SDS011;42154;51.992;5.896;2024-03-23T10:05:30;8.05;;;1.45;;
56239;SDS011;42154;51.992;5.896;2024-03-23T10:08:23;6.70;;;2.00;;
56239;SDS011;42154;51.992;5.896;2024-03-23T10:10:48;7.38;;;1.80;;
56239;SDS011;42154;51.992;5.896;2024-03-23T10:13:23;5.60;;;1.77;;
56239;SDS011;42154;51.992;5.896;2024-03-23T10:15:54;8.90;;;1.30;;
56239;SDS011;42154;51.992;5.896;2024-03-23T10:18:24;4.97;;;1.60;;
56239;SDS011;42154;51.992;5.896;2024-03-23T10:20:51;8.23;;;1.73;;
56239;SDS011;42154;51.992;5.896;2024-03-23T10:23:34;6.85;;;1.38;;
56239;SDS011;42154;51.992;5.896;2024-03-23T10:26:17;4.95;;;1.50;;
56239;SDS011;42154;51.992;5.896;2024-03-23T10:31:24;5.32;;;1.35;;
56239;SDS011;42154;51.992;5.896;2024-03-23T10:33:50;4.25;;;1.35;;
56239;SDS011;42154;51.992;5.896;2024-03-23T10:36:19;6.35;;;1.25;;
56239;SDS011;42154;51.992;5.896;2024-03-23T10:38:45;7.95;;;1.75;;
56239;SDS011;42154;51.992;5.896;2024-03-23T10:41:12;6.18;;;1.38;;
56239;SDS011;42154;51.992;5.896;2024-03-23T10:43:38;6.38;;;1.85;;
56239;SDS011;42154;51.992;5.896;2024-03-23T10:46:04;6.65;;;1.33;;
56239;SDS011;42154;51.992;5.896;2024-03-23T10:48:33;6.15;;;1.30;;
56239;SDS011;42154;51.992;5.896;2024-03-23T10:50:59;6.25;;;1.65;;
56239;SDS011;42154;51.992;5.896;2024-03-23T10:53:25;9.30;;;1.77;;
56239;SDS011;42154;51.992;5.896;2024-03-23T10:55:52;5.60;;;1.77;;
56239;SDS011;42154;51.992;5.896;2024-03-23T10:58:21;4.65;;;1.45;;
56239;SDS011;42154;51.992;5.896;2024-03-23T11:00:53;8.02;;;1.67;;
56239;SDS011;42154;51.992;5.896;2024-03-23T11:03:38;7.20;;;1.90;;
56239;SDS011;42154;51.992;5.896;2024-03-23T11:06:05;8.07;;;2.00;;
56239;SDS011;42154;51.992;5.896;2024-03-23T11:08:32;7.13;;;1.80;;
56239;SDS011;42154;51.992;5.896;2024-03-23T11:11:12;4.18;;;1.40;;
56239;SDS011;42154;51.992;5.896;2024-03-23T11:13:38;8.73;;;2.00;;
56239;SDS011;42154;51.992;5.896;2024-03-23T11:16:16;6.07;;;1.40;;
56239;SDS011;42154;51.992;5.896;2024-03-23T11:22:03;5.57;;;1.40;;
56239;SDS011;42154;51.992;5.896;2024-03-23T11:24:30;6.03;;;1.50;;
56239;SDS011;42154;51.992;5.896;2024-03-23T11:26:56;5.35;;;1.73;;
56239;SDS011;42154;51.992;5.896;2024-03-23T11:29:25;9.70;;;1.90;;
56239;SDS011;42154;51.992;5.896;2024-03-23T11:31:51;4.43;;;1.30;;
56239;SDS011;42154;51.992;5.896;2024-03-23T11:34:18;5.57;;;1.23;;
56239;SDS011;42154;51.992;5.896;2024-03-23T11:36:45;4.70;;;1.17;;
56239;SDS011;42154;51.992;5.896;2024-03-23T11:39:15;3.47;;;1.00;;
56239;SDS011;42154;51.992;5.896;2024-03-23T11:44:18;7.32;;;1.40;;
56239;SDS011;42154;51.992;5.896;2024-03-23T11:46:48;3.03;;;0.98;;
56239;SDS011;42154;51.992;5.896;2024-03-23T11:51:54;6.35;;;1.92;;
56239;SDS011;42154;51.992;5.896;2024-03-23T11:54:24;4.93;;;1.27;;
56239;SDS011;42154;51.992;5.896;2024-03-23T11:56:57;7.72;;;1.50;;
56239;SDS011;42154;51.992;5.896;2024-03-23T11:59:36;8.02;;;1.88;;
56239;SDS011;42154;51.992;5.896;2024-03-23T12:02:07;7.55;;;1.67;;
56239;SDS011;42154;51.992;5.896;2024-03-23T12:04:33;7.32;;;1.60;;
56239;SDS011;42154;51.992;5.896;2024-03-23T12:07:09;9.52;;;2.28;;
56239;SDS011;42154;51.992;5.896;2024-03-23T12:09:39;5.40;;;1.77;;
56239;SDS011;42154;51.992;5.896;2024-03-23T12:14:35;6.80;;;1.10;;
56239;SDS011;42154;51.992;5.896;2024-03-23T12:17:08;4.85;;;1.35;;
56239;SDS011;42154;51.992;5.896;2024-03-23T12:19:38;6.00;;;1.10;;
56239;SDS011;42154;51.992;5.896;2024-03-23T12:22:05;9.50;;;1.40;;
56239;SDS011;42154;51.992;5.896;2024-03-23T12:24:32;7.85;;;1.33;;
56239;SDS011;42154;51.992;5.896;2024-03-23T12:27:01;3.58;;;0.73;;
56239;SDS011;42154;51.992;5.896;2024-03-23T12:29:31;5.93;;;1.38;;
56239;SDS011;42154;51.992;5.896;2024-03-23T12:32:00;4.95;;;1.38;;
56239;SDS011;42154;51.992;5.896;2024-03-23T12:34:27;8.63;;;1.55;;
56239;SDS011;42154;51.992;5.896;2024-03-23T12:36:53;6.25;;;1.40;;
56239;SDS011;42154;51.992;5.896;2024-03-23T12:39:19;7.40;;;1.38;;
56239;SDS011;42154;51.992;5.896;2024-03-23T12:41:48;8.02;;;1.55;;
56239;SDS011;42154;51.992;5.896;2024-03-23T12:44:14;5.75;;;1.10;;
56239;SDS011;42154;51.992;5.896;2024-03-23T12:46:41;4.53;;;1.33;;
56239;SDS011;42154;51.992;5.896;2024-03-23T12:49:07;9.25;;;1.80;;
56239;SDS011;42154;51.992;5.896;2024-03-23T12:51:33;6.47;;;1.58;;
56239;SDS011;42154;51.992;5.896;2024-03-23T12:53:59;6.43;;;1.50;;
56239;SDS011;42154;51.992;5.896;2024-03-23T12:56:24;10.57;;;2.50;;
56239;SDS011;42154;51.992;5.896;2024-03-23T12:58:50;7.68;;;1.58;;
56239;SDS011;42154;51.992;5.896;2024-03-23T13:01:17;9.48;;;2.00;;
56239;SDS011;42154;51.992;5.896;2024-03-23T13:03:43;10.30;;;1.88;;
56239;SDS011;42154;51.992;5.896;2024-03-23T13:06:11;10.52;;;1.55;;
56239;SDS011;42154;51.992;5.896;2024-03-23T13:08:37;6.63;;;1.60;;
56239;SDS011;42154;51.992;5.896;2024-03-23T13:11:02;6.25;;;1.70;;
56239;SDS011;42154;51.992;5.896;2024-03-23T13:13:28;8.50;;;2.28;;
56239;SDS011;42154;51.992;5.896;2024-03-23T13:15:54;7.18;;;1.25;;
56239;SDS011;42154;51.992;5.896;2024-03-23T13:18:20;4.47;;;1.33;;
56239;SDS011;42154;51.992;5.896;2024-03-23T13:20:45;6.53;;;1.90;;
56239;SDS011;42154;51.992;5.896;2024-03-23T13:23:12;6.70;;;1.80;;
56239;SDS011;42154;51.992;5.896;2024-03-23T13:25:38;5.13;;;1.50;;
56239;SDS011;42154;51.992;5.896;2024-03-23T13:28:04;7.57;;;1.60;;
56239;SDS011;42154;51.992;5.896;2024-03-23T13:30:30;7.57;;;1.88;;
56239;SDS011;42154;51.992;5.896;2024-03-23T13:32:55;6.50;;;1.33;;
56239;SDS011;42154;51.992;5.896;2024-03-23T13:35:21;6.57;;;1.70;;
56239;SDS011;42154;51.992;5.896;2024-03-23T13:37:48;5.95;;;1.42;;
56239;SDS011;42154;51.992;5.896;2024-03-23T13:40:13;5.97;;;1.40;;
56239;SDS011;42154;51.992;5.896;2024-03-23T13:42:39;6.65;;;1.45;;
56239;SDS011;42154;51.992;5.896;2024-03-23T13:45:05;7.10;;;1.13;;
56239;SDS011;42154;51.992;5.896;2024-03-23T13:47:31;8.27;;;1.80;;
56239;SDS011;42154;51.992;5.896;2024-03-23T13:49:57;6.53;;;1.80;;
56239;SDS011;42154;51.992;5.896;2024-03-23T13:52:22;8.15;;;1.50;;
56239;SDS011;42154;51.992;5.896;2024-03-23T13:54:51;4.60;;;1.23;;
56239;SDS011;42154;51.992;5.896;2024-03-23T13:57:17;6.78;;;1.63;;
56239;SDS011;42154;51.992;5.896;2024-03-23T13:59:46;5.05;;;1.73;;
56239;SDS011;42154;51.992;5.896;2024-03-23T14:02:14;6.63;;;1.42;;
56239;SDS011;42154;51.992;5.896;2024-03-23T14:04:39;6.43;;;1.48;;
56239;SDS011;42154;51.992;5.896;2024-03-23T14:07:05;5.18;;;1.25;;
56239;SDS011;42154;51.992;5.896;2024-03-23T14:09:32;3.10;;;1.17;;
56239;SDS011;42154;51.992;5.896;2024-03-23T14:11:58;4.53;;;1.00;;
56239;SDS011;42154;51.992;5.896;2024-03-23T14:14:25;7.90;;;1.40;;
56239;SDS011;42154;51.992;5.896;2024-03-23T14:16:51;6.57;;;1.73;;
56239;SDS011;42154;51.992;5.896;2024-03-23T14:19:18;3.97;;;1.52;;
56239;SDS011;42154;51.992;5.896;2024-03-23T14:21:44;5.63;;;1.02;;
56239;SDS011;42154;51.992;5.896;2024-03-23T14:24:10;3.55;;;0.90;;
56239;SDS011;42154;51.992;5.896;2024-03-23T14:26:35;5.45;;;1.00;;
56239;SDS011;42154;51.992;5.896;2024-03-23T14:29:01;3.80;;;1.05;;
56239;SDS011;42154;51.992;5.896;2024-03-23T14:31:28;5.20;;;1.67;;
56239;SDS011;42154;51.992;5.896;2024-03-23T14:33:54;3.80;;;0.82;;
56239;SDS011;42154;51.992;5.896;2024-03-23T14:36:20;5.25;;;1.55;;
56239;SDS011;42154;51.992;5.896;2024-03-23T14:38:48;4.28;;;1.00;;
56239;SDS011;42154;51.992;5.896;2024-03-23T14:41:14;4.75;;;1.23;;
56239;SDS011;42154;51.992;5.896;2024-03-23T14:43:40;2.75;;;1.02;;
56239;SDS011;42154;51.992;5.896;2024-03-23T14:46:12;4.80;;;1.05;;
56239;SDS011;42154;51.992;5.896;2024-03-23T14:48:39;4.50;;;1.70;;
56239;SDS011;42154;51.992;5.896;2024-03-23T14:51:06;7.18;;;2.40;;
56239;SDS011;42154;51.992;5.896;2024-03-23T14:53:36;3.25;;;1.60;;
56239;SDS011;42154;51.992;5.896;2024-03-23T14:56:04;7.10;;;1.77;;
56239;SDS011;42154;51.992;5.896;2024-03-23T14:58:30;5.05;;;1.10;;
56239;SDS011;42154;51.992;5.896;2024-03-23T15:01:00;4.47;;;1.02;;
56239;SDS011;42154;51.992;5.896;2024-03-23T15:03:29;5.50;;;1.77;;
56239;SDS011;42154;51.992;5.896;2024-03-23T15:05:58;6.38;;;2.15;;
56239;SDS011;42154;51.992;5.896;2024-03-23T15:08:27;7.97;;;2.95;;
56239;SDS011;42154;51.992;5.896;2024-03-23T15:10:54;10.00;;;3.03;;
56239;SDS011;42154;51.992;5.896;2024-03-23T15:13:20;5.70;;;2.08;;
56239;SDS011;42154;51.992;5.896;2024-03-23T15:15:48;6.20;;;1.67;;
56239;SDS011;42154;51.992;5.896;2024-03-23T15:18:14;5.80;;;2.45;;
56239;SDS011;42154;51.992;5.896;2024-03-23T15:20:53;4.22;;;1.40;;
56239;SDS011;42154;51.992;5.896;2024-03-23T15:23:30;5.07;;;1.40;;
56239;SDS011;42154;51.992;5.896;2024-03-23T15:26:02;5.35;;;1.33;;
56239;SDS011;42154;51.992;5.896;2024-03-23T15:28:29;4.63;;;1.20;;
56239;SDS011;42154;51.992;5.896;2024-03-23T15:31:14;4.60;;;0.95;;
56239;SDS011;42154;51.992;5.896;2024-03-23T15:33:39;4.25;;;1.90;;
56239;SDS011;42154;51.992;5.896;2024-03-23T15:36:05;9.88;;;5.63;;
56239;SDS011;42154;51.992;5.896;2024-03-23T15:38:31;6.93;;;2.30;;
56239;SDS011;42154;51.992;5.896;2024-03-23T15:40:58;9.13;;;3.70;;
56239;SDS011;42154;51.992;5.896;2024-03-23T15:43:24;8.20;;;2.50;;
56239;SDS011;42154;51.992;5.896;2024-03-23T15:45:57;10.05;;;2.90;;
56239;SDS011;42154;51.992;5.896;2024-03-23T15:48:30;3.70;;;1.75;;